sensor_id;sensor_type;location;lat;lon;timestamp;temperature;humidity
19000;DHT22;9633;50.980;13.850;2022-07-05T00:01:29;16.50;99.90
19000;DHT22;9633;50.980;13.850;2022-07-05T00:03:02;16.50;99.90
19000;DHT22;9633;50.980;13.850;2022-07-05T00:04:35;16.50;99.90
19000;DHT22;9633;50.980;13.850;2022-07-05T00:06:08;16.50;99.90
19000;DHT22;9633;50.980;13.850;2022-07-05T00:07:40;16.50;99.90
19000;DHT22;9633;50.980;13.850;2022-07-05T00:09:15;16.40;99.90
19000;DHT22;9633;50.980;13.850;2022-07-05T00:10:47;16.30;99.90
19000;DHT22;9633;50.980;13.850;2022-07-05T00:12:22;16.30;99.90
19000;DHT22;9633;50.980;13.850;2022-07-05T00:13:56;16.30;99.90
19000;DHT22;9633;50.980;13.850;2022-07-05T00:15:29;16.20;99.90
19000;DHT22;9633;50.980;13.850;2022-07-05T00:17:02;16.10;99.90
19000;DHT22;9633;50.980;13.850;2022-07-05T00:18:35;16.10;99.90
19000;DHT22;9633;50.980;13.850;2022-07-05T00:20:09;16.10;99.90
19000;DHT22;9633;50.980;13.850;2022-07-05T00:21:42;16.00;99.90
19000;DHT22;9633;50.980;13.850;2022-07-05T00:23:16;16.10;99.90
19000;DHT22;9633;50.980;13.850;2022-07-05T00:24:50;16.00;99.90
19000;DHT22;9633;50.980;13.850;2022-07-05T00:26:23;16.00;99.90
19000;DHT22;9633;50.980;13.850;2022-07-05T00:27:57;16.00;99.90
19000;DHT22;9633;50.980;13.850;2022-07-05T00:29:30;16.00;99.90
19000;DHT22;9633;50.980;13.850;2022-07-05T00:31:03;16.00;99.90
19000;DHT22;9633;50.980;13.850;2022-07-05T00:32:37;16.00;99.90
19000;DHT22;9633;50.980;13.850;2022-07-05T00:34:09;16.00;99.90
19000;DHT22;9633;50.980;13.850;2022-07-05T00:35:43;16.00;99.90
19000;DHT22;9633;50.980;13.850;2022-07-05T00:37:16;16.00;99.90
19000;DHT22;9633;50.980;13.850;2022-07-05T00:38:49;16.10;99.90
19000;DHT22;9633;50.980;13.850;2022-07-05T00:40:24;16.10;99.90
19000;DHT22;9633;50.980;13.850;2022-07-05T00:41:57;16.00;99.90
19000;DHT22;9633;50.980;13.850;2022-07-05T00:43:33;16.00;99.90
19000;DHT22;9633;50.980;13.850;2022-07-05T00:45:06;16.00;99.90
19000;DHT22;9633;50.980;13.850;2022-07-05T00:46:42;15.90;99.90
19000;DHT22;9633;50.980;13.850;2022-07-05T00:48:16;15.90;99.90
19000;DHT22;9633;50.980;13.850;2022-07-05T00:49:49;15.90;99.90
19000;DHT22;9633;50.980;13.850;2022-07-05T00:51:21;15.90;99.90
19000;DHT22;9633;50.980;13.850;2022-07-05T00:52:56;15.90;99.90
19000;DHT22;9633;50.980;13.850;2022-07-05T00:54:32;15.90;99.90
19000;DHT22;9633;50.980;13.850;2022-07-05T00:56:07;15.80;99.90
19000;DHT22;9633;50.980;13.850;2022-07-05T00:57:40;15.80;99.90
19000;DHT22;9633;50.980;13.850;2022-07-05T00:59:14;15.80;99.90
19000;DHT22;9633;50.980;13.850;2022-07-05T01:00:47;15.80;99.90
19000;DHT22;9633;50.980;13.850;2022-07-05T01:02:20;15.80;99.90
19000;DHT22;9633;50.980;13.850;2022-07-05T01:03:55;15.80;99.90
19000;DHT22;9633;50.980;13.850;2022-07-05T01:05:30;15.70;99.90
19000;DHT22;9633;50.980;13.850;2022-07-05T01:07:04;15.70;99.90
19000;DHT22;9633;50.980;13.850;2022-07-05T01:08:39;15.70;99.90
19000;DHT22;9633;50.980;13.850;2022-07-05T01:10:12;15.60;99.90
19000;DHT22;9633;50.980;13.850;2022-07-05T01:11:48;15.60;99.90
19000;DHT22;9633;50.980;13.850;2022-07-05T01:13:22;15.50;99.90
19000;DHT22;9633;50.980;13.850;2022-07-05T01:14:56;15.40;99.90
19000;DHT22;9633;50.980;13.850;2022-07-05T01:16:29;15.40;99.90
19000;DHT22;9633;50.980;13.850;2022-07-05T01:18:05;15.40;99.90
19000;DHT22;9633;50.980;13.850;2022-07-05T01:19:38;15.40;99.90
19000;DHT22;9633;50.980;13.850;2022-07-05T01:21:13;15.40;99.90
19000;DHT22;9633;50.980;13.850;2022-07-05T01:22:52;15.40;99.90
19000;DHT22;9633;50.980;13.850;2022-07-05T01:24:26;15.40;99.90
19000;DHT22;9633;50.980;13.850;2022-07-05T01:26:00;15.40;99.90
19000;DHT22;9633;50.980;13.850;2022-07-05T01:27:33;15.40;99.90
19000;DHT22;9633;50.980;13.850;2022-07-05T01:29:08;15.40;99.90
19000;DHT22;9633;50.980;13.850;2022-07-05T01:30:42;15.20;99.90
19000;DHT22;9633;50.980;13.850;2022-07-05T01:32:15;15.20;99.90
19000;DHT22;9633;50.980;13.850;2022-07-05T01:33:49;15.20;99.90
19000;DHT22;9633;50.980;13.850;2022-07-05T01:35:22;15.20;99.90
19000;DHT22;9633;50.980;13.850;2022-07-05T01:36:55;15.10;99.90
19000;DHT22;9633;50.980;13.850;2022-07-05T01:38:29;15.10;99.90
19000;DHT22;9633;50.980;13.850;2022-07-05T01:40:03;15.10;99.90
19000;DHT22;9633;50.980;13.850;2022-07-05T01:41:36;15.00;99.90
19000;DHT22;9633;50.980;13.850;2022-07-05T01:43:10;15.00;99.90
19000;DHT22;9633;50.980;13.850;2022-07-05T01:44:43;15.00;99.90
19000;DHT22;9633;50.980;13.850;2022-07-05T01:46:17;15.00;99.90
19000;DHT22;9633;50.980;13.850;2022-07-05T01:47:54;15.00;99.90
19000;DHT22;9633;50.980;13.850;2022-07-05T01:49:27;15.00;99.90
19000;DHT22;9633;50.980;13.850;2022-07-05T01:51:04;15.00;99.90
19000;DHT22;9633;50.980;13.850;2022-07-05T01:52:39;14.90;99.90
19000;DHT22;9633;50.980;13.850;2022-07-05T01:54:16;14.90;99.90
19000;DHT22;9633;50.980;13.850;2022-07-05T01:55:51;14.80;99.90
19000;DHT22;9633;50.980;13.850;2022-07-05T01:57:25;14.80;99.90
19000;DHT22;9633;50.980;13.850;2022-07-05T01:58:59;14.80;99.90
19000;DHT22;9633;50.980;13.850;2022-07-05T02:00:31;14.70;99.90
19000;DHT22;9633;50.980;13.850;2022-07-05T02:02:13;14.70;99.90
19000;DHT22;9633;50.980;13.850;2022-07-05T02:03:51;14.60;99.90
19000;DHT22;9633;50.980;13.850;2022-07-05T02:05:29;14.50;99.90
19000;DHT22;9633;50.980;13.850;2022-07-05T02:07:07;14.40;99.90
19000;DHT22;9633;50.980;13.850;2022-07-05T02:08:41;14.40;99.90
19000;DHT22;9633;50.980;13.850;2022-07-05T02:10:16;14.30;99.90
19000;DHT22;9633;50.980;13.850;2022-07-05T02:11:50;14.30;99.90
19000;DHT22;9633;50.980;13.850;2022-07-05T02:13:24;14.20;99.90
19000;DHT22;9633;50.980;13.850;2022-07-05T02:14:57;14.20;99.90
19000;DHT22;9633;50.980;13.850;2022-07-05T02:16:30;14.20;99.90
19000;DHT22;9633;50.980;13.850;2022-07-05T02:18:05;14.10;99.90
19000;DHT22;9633;50.980;13.850;2022-07-05T02:19:38;14.10;99.90
19000;DHT22;9633;50.980;13.850;2022-07-05T02:21:13;14.10;99.90
19000;DHT22;9633;50.980;13.850;2022-07-05T02:22:47;14.00;99.90
19000;DHT22;9633;50.980;13.850;2022-07-05T02:24:21;14.00;99.90
19000;DHT22;9633;50.980;13.850;2022-07-05T02:26:06;14.00;99.90
19000;DHT22;9633;50.980;13.850;2022-07-05T02:27:41;14.00;99.90
19000;DHT22;9633;50.980;13.850;2022-07-05T02:29:16;13.90;99.90
19000;DHT22;9633;50.980;13.850;2022-07-05T02:30:50;13.90;99.90
19000;DHT22;9633;50.980;13.850;2022-07-05T02:32:24;13.90;99.90
19000;DHT22;9633;50.980;13.850;2022-07-05T02:33:57;13.80;99.90
19000;DHT22;9633;50.980;13.850;2022-07-05T02:35:31;13.80;99.90
19000;DHT22;9633;50.980;13.850;2022-07-05T02:37:03;13.80;99.90
19000;DHT22;9633;50.980;13.850;2022-07-05T02:38:38;13.70;99.90
19000;DHT22;9633;50.980;13.850;2022-07-05T02:40:13;13.70;99.90
19000;DHT22;9633;50.980;13.850;2022-07-05T02:41:52;13.70;99.90
19000;DHT22;9633;50.980;13.850;2022-07-05T02:43:26;13.70;99.90
19000;DHT22;9633;50.980;13.850;2022-07-05T02:44:59;13.70;99.90
19000;DHT22;9633;50.980;13.850;2022-07-05T02:46:32;13.60;99.90
19000;DHT22;9633;50.980;13.850;2022-07-05T02:48:08;13.60;99.90
19000;DHT22;9633;50.980;13.850;2022-07-05T02:49:42;13.60;99.90
19000;DHT22;9633;50.980;13.850;2022-07-05T02:51:15;13.60;99.90
19000;DHT22;9633;50.980;13.850;2022-07-05T02:52:50;13.60;99.90
19000;DHT22;9633;50.980;13.850;2022-07-05T02:54:23;13.60;99.90
19000;DHT22;9633;50.980;13.850;2022-07-05T02:55:56;13.50;99.90
19000;DHT22;9633;50.980;13.850;2022-07-05T02:57:31;13.50;99.90
19000;DHT22;9633;50.980;13.850;2022-07-05T02:59:07;13.50;99.90
19000;DHT22;9633;50.980;13.850;2022-07-05T03:00:42;13.50;99.90
19000;DHT22;9633;50.980;13.850;2022-07-05T03:02:15;13.50;99.90
19000;DHT22;9633;50.980;13.850;2022-07-05T03:03:48;13.50;99.90
19000;DHT22;9633;50.980;13.850;2022-07-05T03:05:23;13.50;99.90
19000;DHT22;9633;50.980;13.850;2022-07-05T03:07:01;13.40;99.90
19000;DHT22;9633;50.980;13.850;2022-07-05T03:08:35;13.50;99.90
19000;DHT22;9633;50.980;13.850;2022-07-05T03:10:09;13.50;99.90
19000;DHT22;9633;50.980;13.850;2022-07-05T03:11:42;13.50;99.90
19000;DHT22;9633;50.980;13.850;2022-07-05T03:13:17;13.50;99.90
19000;DHT22;9633;50.980;13.850;2022-07-05T03:14:50;13.50;99.90
19000;DHT22;9633;50.980;13.850;2022-07-05T03:16:25;13.50;99.90
19000;DHT22;9633;50.980;13.850;2022-07-05T03:17:59;13.50;99.90
19000;DHT22;9633;50.980;13.850;2022-07-05T03:19:34;13.50;99.90
19000;DHT22;9633;50.980;13.850;2022-07-05T03:21:07;13.50;99.90
19000;DHT22;9633;50.980;13.850;2022-07-05T03:22:41;13.50;99.90
19000;DHT22;9633;50.980;13.850;2022-07-05T03:24:13;13.50;99.90
19000;DHT22;9633;50.980;13.850;2022-07-05T03:25:46;13.50;99.90
19000;DHT22;9633;50.980;13.850;2022-07-05T03:27:18;13.60;99.90
19000;DHT22;9633;50.980;13.850;2022-07-05T03:28:56;13.60;99.90
19000;DHT22;9633;50.980;13.850;2022-07-05T03:30:30;13.70;99.90
19000;DHT22;9633;50.980;13.850;2022-07-05T03:32:03;13.70;99.90
19000;DHT22;9633;50.980;13.850;2022-07-05T03:33:37;13.70;99.90
19000;DHT22;9633;50.980;13.850;2022-07-05T03:35:13;13.80;99.90
19000;DHT22;9633;50.980;13.850;2022-07-05T03:36:45;13.80;99.90
19000;DHT22;9633;50.980;13.850;2022-07-05T03:38:21;13.90;99.90
19000;DHT22;9633;50.980;13.850;2022-07-05T03:39:54;13.90;99.90
19000;DHT22;9633;50.980;13.850;2022-07-05T03:41:27;14.00;99.90
19000;DHT22;9633;50.980;13.850;2022-07-05T03:43:00;14.00;99.90
19000;DHT22;9633;50.980;13.850;2022-07-05T03:44:38;14.10;99.90
19000;DHT22;9633;50.980;13.850;2022-07-05T03:46:12;14.20;99.90
19000;DHT22;9633;50.980;13.850;2022-07-05T03:47:47;14.30;99.90
19000;DHT22;9633;50.980;13.850;2022-07-05T03:49:20;14.40;99.90
19000;DHT22;9633;50.980;13.850;2022-07-05T03:50:54;14.50;99.90
19000;DHT22;9633;50.980;13.850;2022-07-05T03:52:27;14.70;99.90
19000;DHT22;9633;50.980;13.850;2022-07-05T03:54:02;14.70;99.90
19000;DHT22;9633;50.980;13.850;2022-07-05T03:55:36;14.90;99.90
19000;DHT22;9633;50.980;13.850;2022-07-05T03:57:10;15.00;99.90
19000;DHT22;9633;50.980;13.850;2022-07-05T03:58:44;15.20;99.90
19000;DHT22;9633;50.980;13.850;2022-07-05T04:00:19;15.20;99.90
19000;DHT22;9633;50.980;13.850;2022-07-05T04:01:59;15.40;99.90
19000;DHT22;9633;50.980;13.850;2022-07-05T04:03:33;15.50;99.90
19000;DHT22;9633;50.980;13.850;2022-07-05T04:05:13;15.70;99.90
19000;DHT22;9633;50.980;13.850;2022-07-05T04:06:48;15.90;99.90
19000;DHT22;9633;50.980;13.850;2022-07-05T04:08:21;16.10;99.90
19000;DHT22;9633;50.980;13.850;2022-07-05T04:09:54;16.20;99.90
19000;DHT22;9633;50.980;13.850;2022-07-05T04:11:28;16.30;99.90
19000;DHT22;9633;50.980;13.850;2022-07-05T04:13:01;16.50;99.90
19000;DHT22;9633;50.980;13.850;2022-07-05T04:14:35;16.60;99.90
19000;DHT22;9633;50.980;13.850;2022-07-05T04:16:09;16.70;99.90
19000;DHT22;9633;50.980;13.850;2022-07-05T04:17:47;16.90;99.90
19000;DHT22;9633;50.980;13.850;2022-07-05T04:19:20;16.90;99.90
19000;DHT22;9633;50.980;13.850;2022-07-05T04:20:55;17.00;99.90
19000;DHT22;9633;50.980;13.850;2022-07-05T04:22:29;17.00;99.90
19000;DHT22;9633;50.980;13.850;2022-07-05T04:24:02;17.00;99.90
19000;DHT22;9633;50.980;13.850;2022-07-05T04:25:35;17.00;99.90
19000;DHT22;9633;50.980;13.850;2022-07-05T04:27:16;17.10;99.90
19000;DHT22;9633;50.980;13.850;2022-07-05T04:28:49;17.20;99.90
19000;DHT22;9633;50.980;13.850;2022-07-05T04:30:31;17.30;99.90
19000;DHT22;9633;50.980;13.850;2022-07-05T04:32:07;17.30;99.90
19000;DHT22;9633;50.980;13.850;2022-07-05T04:33:40;17.10;99.90
19000;DHT22;9633;50.980;13.850;2022-07-05T04:35:16;17.10;99.90
19000;DHT22;9633;50.980;13.850;2022-07-05T04:36:53;17.10;99.90
19000;DHT22;9633;50.980;13.850;2022-07-05T04:38:26;17.00;99.90
19000;DHT22;9633;50.980;13.850;2022-07-05T04:40:02;17.00;99.90
19000;DHT22;9633;50.980;13.850;2022-07-05T04:41:36;17.00;99.90
19000;DHT22;9633;50.980;13.850;2022-07-05T04:43:12;17.00;99.90
19000;DHT22;9633;50.980;13.850;2022-07-05T04:44:45;17.00;99.90
19000;DHT22;9633;50.980;13.850;2022-07-05T04:46:19;17.10;99.90
19000;DHT22;9633;50.980;13.850;2022-07-05T04:47:55;17.30;99.90
19000;DHT22;9633;50.980;13.850;2022-07-05T04:49:30;17.50;99.90
19000;DHT22;9633;50.980;13.850;2022-07-05T04:51:03;17.60;99.90
19000;DHT22;9633;50.980;13.850;2022-07-05T04:52:37;17.50;99.90
19000;DHT22;9633;50.980;13.850;2022-07-05T04:54:10;17.40;99.90
19000;DHT22;9633;50.980;13.850;2022-07-05T04:55:44;17.60;99.90
19000;DHT22;9633;50.980;13.850;2022-07-05T04:57:17;17.70;99.90
19000;DHT22;9633;50.980;13.850;2022-07-05T04:58:50;18.00;99.90
19000;DHT22;9633;50.980;13.850;2022-07-05T05:00:23;18.10;99.90
19000;DHT22;9633;50.980;13.850;2022-07-05T05:01:56;18.20;99.90
19000;DHT22;9633;50.980;13.850;2022-07-05T05:03:30;18.10;99.90
19000;DHT22;9633;50.980;13.850;2022-07-05T05:05:04;17.90;99.90
19000;DHT22;9633;50.980;13.850;2022-07-05T05:06:37;17.60;99.90
19000;DHT22;9633;50.980;13.850;2022-07-05T05:08:11;17.50;99.90
19000;DHT22;9633;50.980;13.850;2022-07-05T05:09:44;17.40;99.90
19000;DHT22;9633;50.980;13.850;2022-07-05T05:11:18;17.30;99.90
19000;DHT22;9633;50.980;13.850;2022-07-05T05:12:51;17.50;99.90
19000;DHT22;9633;50.980;13.850;2022-07-05T05:14:24;17.60;99.90
19000;DHT22;9633;50.980;13.850;2022-07-05T05:15:57;17.70;99.90
19000;DHT22;9633;50.980;13.850;2022-07-05T05:17:35;17.80;99.90
19000;DHT22;9633;50.980;13.850;2022-07-05T05:19:10;17.80;99.90
19000;DHT22;9633;50.980;13.850;2022-07-05T05:20:43;18.00;99.90
19000;DHT22;9633;50.980;13.850;2022-07-05T05:22:16;18.10;99.90
19000;DHT22;9633;50.980;13.850;2022-07-05T05:23:49;18.10;99.90
19000;DHT22;9633;50.980;13.850;2022-07-05T05:25:23;18.10;99.90
19000;DHT22;9633;50.980;13.850;2022-07-05T05:26:56;18.10;99.90
19000;DHT22;9633;50.980;13.850;2022-07-05T05:28:29;18.20;99.90
19000;DHT22;9633;50.980;13.850;2022-07-05T05:30:03;18.40;99.90
19000;DHT22;9633;50.980;13.850;2022-07-05T05:31:35;18.50;99.90
19000;DHT22;9633;50.980;13.850;2022-07-05T05:33:08;18.60;99.90
19000;DHT22;9633;50.980;13.850;2022-07-05T05:34:43;18.60;99.90
19000;DHT22;9633;50.980;13.850;2022-07-05T05:36:16;18.70;99.90
19000;DHT22;9633;50.980;13.850;2022-07-05T05:37:51;18.80;99.90
19000;DHT22;9633;50.980;13.850;2022-07-05T05:39:24;18.70;99.90
19000;DHT22;9633;50.980;13.850;2022-07-05T05:40:58;18.50;84.10
19000;DHT22;9633;50.980;13.850;2022-07-05T05:42:31;18.40;99.90
19000;DHT22;9633;50.980;13.850;2022-07-05T05:44:04;18.40;97.00
19000;DHT22;9633;50.980;13.850;2022-07-05T05:45:37;18.80;66.90
19000;DHT22;9633;50.980;13.850;2022-07-05T05:47:11;19.00;37.90
19000;DHT22;9633;50.980;13.850;2022-07-05T05:48:47;19.10;1.00
19000;DHT22;9633;50.980;13.850;2022-07-05T05:50:24;19.40;1.00
19000;DHT22;9633;50.980;13.850;2022-07-05T05:51:57;19.50;1.00
19000;DHT22;9633;50.980;13.850;2022-07-05T05:53:30;19.50;1.00
19000;DHT22;9633;50.980;13.850;2022-07-05T05:55:05;19.60;1.00
19000;DHT22;9633;50.980;13.850;2022-07-05T05:56:37;20.30;1.00
19000;DHT22;9633;50.980;13.850;2022-07-05T05:58:11;21.50;1.00
19000;DHT22;9633;50.980;13.850;2022-07-05T05:59:45;21.90;1.00
19000;DHT22;9633;50.980;13.850;2022-07-05T06:01:19;21.50;1.00
19000;DHT22;9633;50.980;13.850;2022-07-05T06:02:52;21.20;1.00
19000;DHT22;9633;50.980;13.850;2022-07-05T06:04:25;21.00;1.00
19000;DHT22;9633;50.980;13.850;2022-07-05T06:06:00;22.00;1.00
19000;DHT22;9633;50.980;13.850;2022-07-05T06:07:47;22.50;1.00
19000;DHT22;9633;50.980;13.850;2022-07-05T06:09:20;22.90;1.00
19000;DHT22;9633;50.980;13.850;2022-07-05T06:10:53;22.80;1.00
19000;DHT22;9633;50.980;13.850;2022-07-05T06:12:35;22.50;1.00
19000;DHT22;9633;50.980;13.850;2022-07-05T06:14:08;22.30;1.00
19000;DHT22;9633;50.980;13.850;2022-07-05T06:15:43;22.80;1.00
19000;DHT22;9633;50.980;13.850;2022-07-05T06:17:16;22.90;1.00
19000;DHT22;9633;50.980;13.850;2022-07-05T06:18:49;23.00;1.00
19000;DHT22;9633;50.980;13.850;2022-07-05T06:20:24;23.00;1.00
19000;DHT22;9633;50.980;13.850;2022-07-05T06:21:58;23.20;1.00
19000;DHT22;9633;50.980;13.850;2022-07-05T06:23:31;23.50;1.00
19000;DHT22;9633;50.980;13.850;2022-07-05T06:25:05;25.30;1.00
19000;DHT22;9633;50.980;13.850;2022-07-05T06:26:53;25.20;7.30
19000;DHT22;9633;50.980;13.850;2022-07-05T06:28:26;25.00;2.20
19000;DHT22;9633;50.980;13.850;2022-07-05T06:29:59;25.20;8.50
19000;DHT22;9633;50.980;13.850;2022-07-05T06:31:32;24.70;6.20
19000;DHT22;9633;50.980;13.850;2022-07-05T06:33:06;24.70;3.90
19000;DHT22;9633;50.980;13.850;2022-07-05T06:34:39;25.70;10.50
19000;DHT22;9633;50.980;13.850;2022-07-05T06:36:12;26.60;17.90
19000;DHT22;9633;50.980;13.850;2022-07-05T06:37:48;27.30;31.40
19000;DHT22;9633;50.980;13.850;2022-07-05T06:39:23;27.80;39.00
19000;DHT22;9633;50.980;13.850;2022-07-05T06:40:56;27.90;41.30
19000;DHT22;9633;50.980;13.850;2022-07-05T06:42:31;26.20;40.10
19000;DHT22;9633;50.980;13.850;2022-07-05T06:44:04;25.10;38.40
19000;DHT22;9633;50.980;13.850;2022-07-05T06:45:57;24.70;32.80
19000;DHT22;9633;50.980;13.850;2022-07-05T06:47:31;25.90;32.30
19000;DHT22;9633;50.980;13.850;2022-07-05T06:49:04;25.20;30.10
19000;DHT22;9633;50.980;13.850;2022-07-05T06:50:39;25.40;29.40
19000;DHT22;9633;50.980;13.850;2022-07-05T06:52:12;24.50;28.10
19000;DHT22;9633;50.980;13.850;2022-07-05T06:53:46;24.50;28.10
19000;DHT22;9633;50.980;13.850;2022-07-05T06:55:37;25.10;28.00
19000;DHT22;9633;50.980;13.850;2022-07-05T06:57:24;26.00;29.30
19000;DHT22;9633;50.980;13.850;2022-07-05T06:59:02;27.30;32.30
19000;DHT22;9633;50.980;13.850;2022-07-05T07:00:39;26.90;33.00
19000;DHT22;9633;50.980;13.850;2022-07-05T07:02:34;28.10;37.20
19000;DHT22;9633;50.980;13.850;2022-07-05T07:04:07;28.60;39.30
19000;DHT22;9633;50.980;13.850;2022-07-05T07:06:00;27.00;38.90
19000;DHT22;9633;50.980;13.850;2022-07-05T07:07:34;25.50;35.50
19000;DHT22;9633;50.980;13.850;2022-07-05T07:09:26;26.10;34.90
19000;DHT22;9633;50.980;13.850;2022-07-05T07:11:00;26.00;34.30
19000;DHT22;9633;50.980;13.850;2022-07-05T07:12:33;26.60;34.90
19000;DHT22;9633;50.980;13.850;2022-07-05T07:14:06;26.70;34.50
19000;DHT22;9633;50.980;13.850;2022-07-05T07:15:39;27.30;36.00
19000;DHT22;9633;50.980;13.850;2022-07-05T07:17:17;26.20;33.60
19000;DHT22;9633;50.980;13.850;2022-07-05T07:18:50;26.00;32.70
19000;DHT22;9633;50.980;13.850;2022-07-05T07:20:43;26.10;32.90
19000;DHT22;9633;50.980;13.850;2022-07-05T07:22:16;27.10;34.60
19000;DHT22;9633;50.980;13.850;2022-07-05T07:23:49;28.00;34.30
19000;DHT22;9633;50.980;13.850;2022-07-05T07:25:24;27.90;35.30
19000;DHT22;9633;50.980;13.850;2022-07-05T07:26:57;27.50;34.60
19000;DHT22;9633;50.980;13.850;2022-07-05T07:28:38;26.60;33.80
19000;DHT22;9633;50.980;13.850;2022-07-05T07:30:12;26.20;35.20
19000;DHT22;9633;50.980;13.850;2022-07-05T07:31:46;26.90;36.40
19000;DHT22;9633;50.980;13.850;2022-07-05T07:33:19;26.60;36.50
19000;DHT22;9633;50.980;13.850;2022-07-05T07:35:13;25.80;33.00
19000;DHT22;9633;50.980;13.850;2022-07-05T07:36:46;25.50;32.50
19000;DHT22;9633;50.980;13.850;2022-07-05T07:38:19;26.60;33.30
19000;DHT22;9633;50.980;13.850;2022-07-05T07:39:53;27.60;35.00
19000;DHT22;9633;50.980;13.850;2022-07-05T07:41:28;27.40;36.30
19000;DHT22;9633;50.980;13.850;2022-07-05T07:43:01;27.40;36.40
19000;DHT22;9633;50.980;13.850;2022-07-05T07:44:36;26.90;35.10
19000;DHT22;9633;50.980;13.850;2022-07-05T07:46:09;26.20;33.50
19000;DHT22;9633;50.980;13.850;2022-07-05T07:47:43;25.60;33.10
19000;DHT22;9633;50.980;13.850;2022-07-05T07:49:16;26.40;33.90
19000;DHT22;9633;50.980;13.850;2022-07-05T07:50:49;26.20;34.20
19000;DHT22;9633;50.980;13.850;2022-07-05T07:52:23;25.70;33.30
19000;DHT22;9633;50.980;13.850;2022-07-05T07:53:56;26.80;34.30
19000;DHT22;9633;50.980;13.850;2022-07-05T07:55:40;27.20;34.80
19000;DHT22;9633;50.980;13.850;2022-07-05T07:57:14;27.70;36.00
19000;DHT22;9633;50.980;13.850;2022-07-05T07:58:47;29.80;38.80
19000;DHT22;9633;50.980;13.850;2022-07-05T08:00:21;29.50;41.20
19000;DHT22;9633;50.980;13.850;2022-07-05T08:01:54;29.20;40.90
19000;DHT22;9633;50.980;13.850;2022-07-05T08:03:27;29.00;40.30
19000;DHT22;9633;50.980;13.850;2022-07-05T08:05:00;30.10;40.70
19000;DHT22;9633;50.980;13.850;2022-07-05T08:06:34;27.70;39.60
19000;DHT22;9633;50.980;13.850;2022-07-05T08:08:07;27.60;42.00
19000;DHT22;9633;50.980;13.850;2022-07-05T08:09:40;29.00;42.60
19000;DHT22;9633;50.980;13.850;2022-07-05T08:11:13;28.80;40.80
19000;DHT22;9633;50.980;13.850;2022-07-05T08:12:48;30.50;41.70
19000;DHT22;9633;50.980;13.850;2022-07-05T08:14:22;30.00;42.10
19000;DHT22;9633;50.980;13.850;2022-07-05T08:15:55;29.60;43.30
19000;DHT22;9633;50.980;13.850;2022-07-05T08:17:29;30.50;44.40
19000;DHT22;9633;50.980;13.850;2022-07-05T08:19:02;32.00;42.20
19000;DHT22;9633;50.980;13.850;2022-07-05T08:20:53;31.40;43.00
19000;DHT22;9633;50.980;13.850;2022-07-05T08:22:43;30.30;43.20
19000;DHT22;9633;50.980;13.850;2022-07-05T08:24:16;29.70;46.90
19000;DHT22;9633;50.980;13.850;2022-07-05T08:25:50;30.60;47.00
19000;DHT22;9633;50.980;13.850;2022-07-05T08:27:23;30.30;43.20
19000;DHT22;9633;50.980;13.850;2022-07-05T08:28:57;31.00;44.30
19000;DHT22;9633;50.980;13.850;2022-07-05T08:30:40;30.40;42.60
19000;DHT22;9633;50.980;13.850;2022-07-05T08:32:14;30.50;43.40
19000;DHT22;9633;50.980;13.850;2022-07-05T08:33:47;30.00;44.80
19000;DHT22;9633;50.980;13.850;2022-07-05T08:35:19;29.80;47.70
19000;DHT22;9633;50.980;13.850;2022-07-05T08:36:52;30.20;47.40
19000;DHT22;9633;50.980;13.850;2022-07-05T08:38:26;31.50;50.20
19000;DHT22;9633;50.980;13.850;2022-07-05T08:39:59;30.90;47.50
19000;DHT22;9633;50.980;13.850;2022-07-05T08:41:34;29.30;47.10
19000;DHT22;9633;50.980;13.850;2022-07-05T08:43:08;28.60;46.30
19000;DHT22;9633;50.980;13.850;2022-07-05T08:44:44;27.70;46.60
19000;DHT22;9633;50.980;13.850;2022-07-05T08:46:19;27.40;48.00
19000;DHT22;9633;50.980;13.850;2022-07-05T08:47:53;27.50;45.60
19000;DHT22;9633;50.980;13.850;2022-07-05T08:49:30;28.60;47.50
19000;DHT22;9633;50.980;13.850;2022-07-05T08:51:05;29.50;47.30
19000;DHT22;9633;50.980;13.850;2022-07-05T08:52:40;28.90;46.90
19000;DHT22;9633;50.980;13.850;2022-07-05T08:54:13;28.50;46.70
19000;DHT22;9633;50.980;13.850;2022-07-05T08:55:46;29.00;47.50
19000;DHT22;9633;50.980;13.850;2022-07-05T08:57:19;29.10;49.60
19000;DHT22;9633;50.980;13.850;2022-07-05T08:58:52;29.30;46.30
19000;DHT22;9633;50.980;13.850;2022-07-05T09:00:27;28.60;46.00
19000;DHT22;9633;50.980;13.850;2022-07-05T09:02:01;27.30;48.60
19000;DHT22;9633;50.980;13.850;2022-07-05T09:03:38;27.20;46.60
19000;DHT22;9633;50.980;13.850;2022-07-05T09:05:13;27.00;44.80
19000;DHT22;9633;50.980;13.850;2022-07-05T09:06:48;27.40;48.50
19000;DHT22;9633;50.980;13.850;2022-07-05T09:08:22;27.60;48.20
19000;DHT22;9633;50.980;13.850;2022-07-05T09:10:00;28.50;45.80
19000;DHT22;9633;50.980;13.850;2022-07-05T09:11:38;28.10;44.60
19000;DHT22;9633;50.980;13.850;2022-07-05T09:13:11;27.60;45.90
19000;DHT22;9633;50.980;13.850;2022-07-05T09:14:45;27.90;43.60
19000;DHT22;9633;50.980;13.850;2022-07-05T09:16:20;28.10;45.20
19000;DHT22;9633;50.980;13.850;2022-07-05T09:17:53;28.00;46.40
19000;DHT22;9633;50.980;13.850;2022-07-05T09:19:27;27.60;45.30
19000;DHT22;9633;50.980;13.850;2022-07-05T09:21:14;28.50;43.50
19000;DHT22;9633;50.980;13.850;2022-07-05T09:22:49;29.20;44.70
19000;DHT22;9633;50.980;13.850;2022-07-05T09:24:25;29.10;43.70
19000;DHT22;9633;50.980;13.850;2022-07-05T09:26:02;28.50;42.70
19000;DHT22;9633;50.980;13.850;2022-07-05T09:27:47;28.30;42.20
19000;DHT22;9633;50.980;13.850;2022-07-05T09:29:20;27.70;41.50
19000;DHT22;9633;50.980;13.850;2022-07-05T09:31:27;28.20;44.70
19000;DHT22;9633;50.980;13.850;2022-07-05T09:33:06;27.80;43.00
19000;DHT22;9633;50.980;13.850;2022-07-05T09:34:40;28.30;43.50
19000;DHT22;9633;50.980;13.850;2022-07-05T09:36:13;28.50;44.10
19000;DHT22;9633;50.980;13.850;2022-07-05T09:37:46;28.10;42.00
19000;DHT22;9633;50.980;13.850;2022-07-05T09:39:35;28.00;42.90
19000;DHT22;9633;50.980;13.850;2022-07-05T09:41:11;27.90;45.60
19000;DHT22;9633;50.980;13.850;2022-07-05T09:42:44;28.00;43.90
19000;DHT22;9633;50.980;13.850;2022-07-05T09:44:25;28.30;43.10
19000;DHT22;9633;50.980;13.850;2022-07-05T09:46:00;28.00;42.20
19000;DHT22;9633;50.980;13.850;2022-07-05T09:47:35;27.90;42.00
19000;DHT22;9633;50.980;13.850;2022-07-05T09:49:09;28.20;43.70
19000;DHT22;9633;50.980;13.850;2022-07-05T09:50:42;28.00;40.30
19000;DHT22;9633;50.980;13.850;2022-07-05T09:52:34;28.40;41.80
19000;DHT22;9633;50.980;13.850;2022-07-05T09:54:08;29.80;42.60
19000;DHT22;9633;50.980;13.850;2022-07-05T09:55:41;29.80;41.00
19000;DHT22;9633;50.980;13.850;2022-07-05T09:57:24;28.70;40.60
19000;DHT22;9633;50.980;13.850;2022-07-05T09:59:11;28.10;41.20
19000;DHT22;9633;50.980;13.850;2022-07-05T10:00:45;27.90;41.20
19000;DHT22;9633;50.980;13.850;2022-07-05T10:02:34;28.00;42.00